createdAt,value
2022-12-04T00:00:00.625Z,77
2022-12-04T00:01:03.392Z,76.9
2022-12-04T00:02:06.451Z,76.9
2022-12-04T00:03:09.599Z,76.9
2022-12-04T00:04:13.500Z,76.9
2022-12-04T00:05:16.164Z,77
2022-12-04T00:06:19.654Z,76.9
2022-12-04T00:07:22.976Z,76.8
2022-12-04T00:08:26.410Z,76.8
2022-12-04T00:09:29.455Z,76.9
2022-12-04T00:10:32.973Z,77
2022-12-04T00:11:35.746Z,77.1
2022-12-04T00:12:38.357Z,77.1
2022-12-04T00:13:41.205Z,77.3
2022-12-04T00:15:27.497Z,77.5
2022-12-04T00:16:30.906Z,77.5
2022-12-04T00:17:33.614Z,77.5
2022-12-04T00:18:36.718Z,77.5
2022-12-04T00:19:39.839Z,77.4
2022-12-04T00:20:42.892Z,77.5
2022-12-04T00:21:45.679Z,77.6
2022-12-04T00:22:48.652Z,77.6
2022-12-04T00:23:51.416Z,77.5
2022-12-04T00:24:55.409Z,77.5
2022-12-04T00:25:58.858Z,77.8
2022-12-04T00:27:01.373Z,77.7
2022-12-04T00:28:03.797Z,77.7
2022-12-04T00:29:06.500Z,77.7
2022-12-04T00:30:09.493Z,77.6
2022-12-04T00:31:12.392Z,77.5
2022-12-04T00:32:15.365Z,77.4
2022-12-04T00:33:17.787Z,77.4
2022-12-04T00:34:20.554Z,77.4
2022-12-04T00:35:23.317Z,77.4
2022-12-04T00:36:26.292Z,77.4
2022-12-04T00:37:29.644Z,77.4
2022-12-04T00:38:32.605Z,77.3
2022-12-04T00:39:35.731Z,77.3
2022-12-04T00:40:39.156Z,77.4
2022-12-04T00:41:42.899Z,77.5
2022-12-04T00:42:45.876Z,77.6
2022-12-04T00:43:48.487Z,77.8
2022-12-04T00:44:51.184Z,77.8
2022-12-04T00:45:53.883Z,77.8
2022-12-04T00:46:56.394Z,77.8
2022-12-04T00:47:58.812Z,77.7
2022-12-04T00:49:01.891Z,77.9
2022-12-04T00:50:04.365Z,78.2
2022-12-04T00:51:07.656Z,78.3
2022-12-04T00:52:10.347Z,78.3
2022-12-04T00:53:13.365Z,78.4
2022-12-04T00:54:16.414Z,78.3
2022-12-04T00:55:20.070Z,78.3
2022-12-04T00:56:23.510Z,78.4
2022-12-04T00:57:26.409Z,78.4
2022-12-04T00:58:29.146Z,78.4
2022-12-04T00:59:31.561Z,78.3
2022-12-04T01:00:34.263Z,78.2
2022-12-04T01:01:37.999Z,78
2022-12-04T01:02:41.846Z,77.8
2022-12-04T01:03:44.874Z,77.8
2022-12-04T01:04:47.441Z,77.6
2022-12-04T01:05:50.215Z,77.5
2022-12-04T01:06:52.941Z,77.7
2022-12-04T01:07:55.189Z,77.7
2022-12-04T01:08:58.438Z,77.7
2022-12-04T01:10:01.413Z,77.8
2022-12-04T01:11:03.831Z,77.7
2022-12-04T01:12:06.360Z,77.8
2022-12-04T01:13:10.410Z,77.8
2022-12-04T01:14:13.021Z,77.8
2022-12-04T01:15:16.075Z,77.9
2022-12-04T01:16:18.785Z,78.1
2022-12-04T01:17:21.933Z,78.1
2022-12-04T01:18:24.624Z,77.9
2022-12-04T01:19:26.845Z,77.9
2022-12-04T01:20:30.086Z,77.8
2022-12-04T01:21:32.660Z,77.8
2022-12-04T01:22:35.670Z,77.8
2022-12-04T01:23:38.717Z,77.7
2022-12-04T01:24:41.561Z,77.7
2022-12-04T01:25:44.259Z,77.8
2022-12-04T01:26:47.521Z,77.8
2022-12-04T01:27:50.651Z,77.9
2022-12-04T01:28:54.515Z,78
2022-12-04T01:29:58.864Z,78
2022-12-04T01:31:02.013Z,78.1
2022-12-04T01:32:05.252Z,78
2022-12-04T01:33:07.862Z,78.1
2022-12-04T01:34:10.916Z,78.1
2022-12-04T01:35:14.344Z,78
2022-12-04T01:36:17.203Z,78
2022-12-04T01:37:19.980Z,78
2022-12-04T01:38:22.794Z,77.9
2022-12-04T01:39:25.561Z,77.9
2022-12-04T01:40:28.324Z,77.9
2022-12-04T01:41:31.644Z,77.8
2022-12-04T01:42:34.156Z,77.9
2022-12-04T01:43:37.016Z,78.1
2022-12-04T01:44:40.539Z,78.1
2022-12-04T01:45:43.554Z,78.2
2022-12-04T01:46:46.574Z,78.2
2022-12-04T01:47:49.916Z,78.1
2022-12-04T01:48:52.723Z,78.1
2022-12-04T01:49:57.913Z,78
2022-12-04T01:51:00.633Z,78.1
2022-12-04T01:52:03.206Z,78
2022-12-04T01:53:06.460Z,78.1
2022-12-04T01:54:09.558Z,78.1
2022-12-04T01:55:12.393Z,78.1
2022-12-04T01:56:14.687Z,78.2
2022-12-04T01:57:17.746Z,78.2
2022-12-04T01:58:21.178Z,78.1
2022-12-04T01:59:23.951Z,78.1
2022-12-04T02:00:27.753Z,78.1
2022-12-04T02:01:31.141Z,78.1
2022-12-04T02:02:34.191Z,78
2022-12-04T02:03:37.762Z,78
2022-12-04T02:04:40.292Z,77.9
2022-12-04T02:05:43.434Z,77.9
2022-12-04T02:06:46.554Z,77.7
2022-12-04T02:07:49.119Z,77.7
2022-12-04T02:08:51.929Z,77.7
2022-12-04T02:09:56.922Z,77.7
2022-12-04T02:11:00.750Z,78
2022-12-04T02:12:03.793Z,77.9
2022-12-04T02:13:06.856Z,78.2
2022-12-04T02:14:09.911Z,78.2
2022-12-04T02:15:13.058Z,78.3
2022-12-04T02:16:16.837Z,78.4
2022-12-04T02:17:19.943Z,78.3
2022-12-04T02:18:22.449Z,78.3
2022-12-04T02:19:25.899Z,78.3
2022-12-04T02:20:27.560Z,78.6
2022-12-04T02:21:30.449Z,78.8
2022-12-04T02:22:33.250Z,79
2022-12-04T02:23:36.105Z,79.1
2022-12-04T02:24:38.943Z,79.1
2022-12-04T02:25:41.879Z,78.9
2022-12-04T02:26:44.929Z,79
2022-12-04T02:27:47.552Z,79
2022-12-04T02:28:50.537Z,79
2022-12-04T02:29:54.816Z,78.9
2022-12-04T02:30:58.461Z,78.9
2022-12-04T02:32:02.838Z,79.1
2022-12-04T02:33:05.708Z,79.2
2022-12-04T02:34:09.216Z,79.3
2022-12-04T02:35:12.285Z,79.2
2022-12-04T02:36:15.266Z,79.2
2022-12-04T02:37:18.592Z,79.2
2022-12-04T02:38:21.381Z,79.3
2022-12-04T02:39:24.432Z,79.3
2022-12-04T02:40:27.480Z,79.3
2022-12-04T02:41:30.527Z,79.2
2022-12-04T02:42:33.496Z,79.1
2022-12-04T02:43:35.996Z,78.9
2022-12-04T02:44:38.762Z,78.9
2022-12-04T02:45:41.438Z,78.9
2022-12-04T02:46:44.077Z,79
2022-12-04T02:47:47.964Z,79.1
2022-12-04T02:48:50.660Z,79.1
2022-12-04T02:49:54.228Z,79.2
2022-12-04T02:50:58.441Z,79.3
2022-12-04T02:52:01.424Z,79.2
2022-12-04T02:53:04.933Z,79.2
2022-12-04T02:54:07.900Z,79
2022-12-04T02:55:11.310Z,78.9
2022-12-04T02:56:14.931Z,78.8
2022-12-04T02:57:17.940Z,78.7
2022-12-04T02:58:20.864Z,78.6
2022-12-04T02:59:23.640Z,78.6
2022-12-04T03:00:25.614Z,78.7
2022-12-04T03:01:28.825Z,78.8
2022-12-04T03:02:32.036Z,78.8
2022-12-04T03:03:35.982Z,78.8
2022-12-04T03:04:39.341Z,78.9
2022-12-04T03:05:42.290Z,78.8
2022-12-04T03:06:45.614Z,78.8
2022-12-04T03:07:49.275Z,78.8
2022-12-04T03:08:52.526Z,78.7
2022-12-04T03:09:56.485Z,78.6
2022-12-04T03:11:00.261Z,78.7
2022-12-04T03:12:03.125Z,78.7
2022-12-04T03:13:06.785Z,78.6
2022-12-04T03:14:08.937Z,78.5
2022-12-04T03:15:11.985Z,78.6
2022-12-04T03:16:15.359Z,78.6
2022-12-04T03:17:18.408Z,78.8
2022-12-04T03:18:21.180Z,78.9
2022-12-04T03:19:25.349Z,78.9
2022-12-04T03:20:28.774Z,78.9
2022-12-04T03:21:31.581Z,78.9
2022-12-04T03:22:35.092Z,79
2022-12-04T03:23:38.143Z,79
2022-12-04T03:24:40.361Z,78.9
2022-12-04T03:25:43.717Z,79
2022-12-04T03:26:46.723Z,79
2022-12-04T03:27:50.122Z,78.9
2022-12-04T03:28:53.025Z,78.9
2022-12-04T03:29:57.182Z,79
2022-12-04T03:31:00.888Z,78.9
2022-12-04T03:32:04.465Z,78.9
2022-12-04T03:33:07.593Z,79
2022-12-04T03:34:10.362Z,79.1
2022-12-04T03:35:14.226Z,79.1
2022-12-04T03:36:16.828Z,79.1
2022-12-04T03:37:20.093Z,79.1
2022-12-04T03:38:23.536Z,79.2
2022-12-04T03:39:26.856Z,79.6
2022-12-04T03:40:28.889Z,79.8
2022-12-04T03:41:31.979Z,79.8
2022-12-04T03:42:34.760Z,79.9
2022-12-04T03:43:37.889Z,80.1
2022-12-04T03:44:41.353Z,80.1
2022-12-04T03:45:44.677Z,80
2022-12-04T03:46:47.901Z,80
2022-12-04T03:47:50.333Z,80.1
2022-12-04T03:48:53.262Z,80
2022-12-04T03:49:57.497Z,80.1
2022-12-04T03:51:01.631Z,80.2
2022-12-04T03:52:04.642Z,80.2
2022-12-04T03:53:07.696Z,80.2
2022-12-04T03:54:10.134Z,80.5
2022-12-04T03:55:12.632Z,80.5
2022-12-04T03:56:15.401Z,80.5
2022-12-04T03:57:18.903Z,80.4
2022-12-04T03:58:21.957Z,80.4
2022-12-04T03:59:24.469Z,80.4
2022-12-04T04:00:27.880Z,80.5
2022-12-04T04:01:30.804Z,80.5
2022-12-04T04:02:33.930Z,80.6
2022-12-04T04:03:36.597Z,80.6
2022-12-04T04:04:40.025Z,80.7
2022-12-04T04:05:43.380Z,80.8
2022-12-04T04:06:47.166Z,80.9
2022-12-04T04:07:50.606Z,80.9
2022-12-04T04:08:53.953Z,80.8
2022-12-04T04:09:58.042Z,80.8
2022-12-04T04:11:00.961Z,80.9
2022-12-04T04:12:04.291Z,81.3
2022-12-04T04:13:06.608Z,81.7
2022-12-04T04:14:09.670Z,81.6
2022-12-04T04:15:12.723Z,81.6
2022-12-04T04:16:16.062Z,81.6
2022-12-04T04:17:19.644Z,81.5
2022-12-04T04:18:21.792Z,81.5
2022-12-04T04:19:25.150Z,81.5
2022-12-04T04:20:27.920Z,81.3
2022-12-04T04:21:30.636Z,81.1
2022-12-04T04:22:34.431Z,81
2022-12-04T04:23:37.618Z,80.8
2022-12-04T04:24:40.847Z,80.6
2022-12-04T04:25:44.510Z,80.6
2022-12-04T04:26:47.490Z,80.7
2022-12-04T04:27:50.567Z,80.8
2022-12-04T04:28:52.953Z,81
2022-12-04T04:29:57.324Z,80.9
2022-12-04T04:31:00.931Z,80.8
2022-12-04T04:32:04.258Z,80.7
2022-12-04T04:33:07.341Z,80.5
2022-12-04T04:34:10.488Z,80.5
2022-12-04T04:35:13.822Z,80.4
2022-12-04T04:36:16.606Z,80.4
2022-12-04T04:37:19.483Z,80.3
2022-12-04T04:38:22.733Z,80.1
2022-12-04T04:39:25.690Z,80.1
2022-12-04T04:40:29.293Z,79.9
2022-12-04T04:41:31.736Z,79.9
2022-12-04T04:42:34.543Z,79.8
2022-12-04T04:43:38.249Z,79.8
2022-12-04T04:44:40.746Z,79.7
2022-12-04T04:45:43.517Z,79.7
2022-12-04T04:46:46.455Z,79.7
2022-12-04T04:47:49.454Z,79.7
2022-12-04T04:48:52.586Z,79.7
2022-12-04T04:49:56.597Z,79.8
2022-12-04T04:51:00.358Z,79.8
2022-12-04T04:52:03.137Z,79.8
2022-12-04T04:53:06.271Z,79.8
2022-12-04T04:54:10.073Z,79.8
2022-12-04T04:55:13.533Z,79.8
2022-12-04T04:56:16.132Z,79.8
2022-12-04T04:57:18.831Z,80
2022-12-04T04:58:21.534Z,80
2022-12-04T04:59:24.513Z,80
2022-12-04T05:00:27.840Z,80
2022-12-04T05:01:30.813Z,79.9
2022-12-04T05:02:34.167Z,79.8
2022-12-04T05:03:36.801Z,79.8
2022-12-04T05:04:40.207Z,79.7
2022-12-04T05:05:42.990Z,79.7
2022-12-04T05:06:46.032Z,79.9
2022-12-04T05:07:49.244Z,80.1
2022-12-04T05:08:52.225Z,80.3
2022-12-04T05:10:01.401Z,80.3
2022-12-04T05:11:04.559Z,80.3
2022-12-04T05:12:07.362Z,80.4
2022-12-04T05:13:10.443Z,80.5
2022-12-04T05:14:13.764Z,80.5
2022-12-04T05:15:16.292Z,80.5
2022-12-04T05:16:19.587Z,80.4
2022-12-04T05:17:22.771Z,80.2
2022-12-04T05:18:26.193Z,80.1
2022-12-04T05:19:29.226Z,80.1
2022-12-04T05:20:32.207Z,80.2
2022-12-04T05:21:34.909Z,80.2
2022-12-04T05:22:37.978Z,80.2
2022-12-04T05:23:41.152Z,80.1
2022-12-04T05:24:44.411Z,80.2
2022-12-04T05:25:48.239Z,80.2
2022-12-04T05:26:51.549Z,80.2
2022-12-04T05:27:54.674Z,80.3
2022-12-04T05:28:57.872Z,80.4
2022-12-04T05:30:01.084Z,80.4
2022-12-04T05:31:04.401Z,80.3
2022-12-04T05:32:07.684Z,80.3
2022-12-04T05:33:10.175Z,80.2
2022-12-04T05:34:13.500Z,80.2
2022-12-04T05:35:16.683Z,80.2
2022-12-04T05:36:19.537Z,80.1
2022-12-04T05:37:22.346Z,80.1
2022-12-04T05:38:24.764Z,80.1
2022-12-04T05:39:27.858Z,80.1
2022-12-04T05:40:30.628Z,80.3
2022-12-04T05:41:34.411Z,80.3
2022-12-04T05:42:37.591Z,80.4
2022-12-04T05:43:40.623Z,80.4
2022-12-04T05:44:43.320Z,80.4
2022-12-04T05:45:46.360Z,80.6
2022-12-04T05:46:50.105Z,80.7
2022-12-04T05:47:53.004Z,80.8
2022-12-04T05:48:56.069Z,80.8
2022-12-04T05:49:59.131Z,80.8
2022-12-04T05:51:02.242Z,80.7
2022-12-04T05:52:05.018Z,80.5
2022-12-04T05:53:07.593Z,80.3
2022-12-04T05:54:10.298Z,80.4
2022-12-04T05:55:12.877Z,80.6
2022-12-04T05:56:15.844Z,80.7
2022-12-04T05:57:19.409Z,80.8
2022-12-04T05:58:27.304Z,80.8
2022-12-04T05:59:30.178Z,80.9
2022-12-04T06:00:33.300Z,81
2022-12-04T06:01:36.516Z,81
2022-12-04T06:02:40.016Z,81.1
2022-12-04T06:03:43.130Z,81.1
2022-12-04T06:04:45.285Z,81.1
2022-12-04T06:05:48.407Z,80.9
2022-12-04T06:06:51.426Z,80.7
2022-12-04T06:07:55.203Z,80.6
2022-12-04T06:08:58.254Z,80.5
2022-12-04T06:10:01.318Z,80.3
2022-12-04T06:11:03.904Z,80.3
2022-12-04T06:12:07.020Z,80.3
2022-12-04T06:13:10.496Z,80.2
2022-12-04T06:14:13.232Z,80.1
2022-12-04T06:15:15.715Z,80.1
2022-12-04T06:16:18.774Z,80.1
2022-12-04T06:17:21.731Z,80.3
2022-12-04T06:18:24.806Z,80.4
2022-12-04T06:19:27.856Z,80.5
2022-12-04T06:20:31.561Z,80.6
2022-12-04T06:21:35.095Z,80.6
2022-12-04T06:22:37.884Z,80.6
2022-12-04T06:23:40.117Z,80.5
2022-12-04T06:24:42.534Z,80.8
2022-12-04T06:25:45.599Z,80.9
2022-12-04T06:27:29.435Z,81.1
2022-12-04T06:28:33.204Z,81.2
2022-12-04T06:29:35.939Z,81.2
2022-12-04T06:30:38.982Z,81
2022-12-04T06:31:42.241Z,81
2022-12-04T06:32:45.163Z,80.9
2022-12-04T06:33:47.972Z,80.9
2022-12-04T06:34:50.689Z,81
2022-12-04T06:35:53.587Z,80.9
2022-12-04T06:36:56.911Z,80.9
2022-12-04T06:38:00.212Z,81
2022-12-04T06:39:03.942Z,81.1
2022-12-04T06:40:06.917Z,81.1
2022-12-04T06:41:09.969Z,81.2
2022-12-04T06:42:12.482Z,81.1
2022-12-04T06:43:15.252Z,81.1
2022-12-04T06:44:18.821Z,81.3
2022-12-04T06:45:21.555Z,81.3
2022-12-04T06:46:24.412Z,81.2
2022-12-04T06:47:27.187Z,81
2022-12-04T06:48:30.528Z,80.8
2022-12-04T06:49:33.025Z,80.7
2022-12-04T06:50:35.729Z,80.6
2022-12-04T06:51:38.329Z,80.4
2022-12-04T06:52:41.692Z,80.3
2022-12-04T06:53:44.791Z,80.3
2022-12-04T06:54:48.119Z,80.3
2022-12-04T06:55:51.474Z,80.3
2022-12-04T06:56:54.431Z,80.1
2022-12-04T06:57:57.840Z,80.1
2022-12-04T06:59:00.407Z,80.2
2022-12-04T07:00:03.923Z,80.1
2022-12-04T07:01:07.806Z,80.1
2022-12-04T07:02:11.092Z,80
2022-12-04T07:03:14.430Z,80
2022-12-04T07:04:17.282Z,79.9
2022-12-04T07:05:20.437Z,79.9
2022-12-04T07:06:23.229Z,79.9
2022-12-04T07:07:26.301Z,79.8
2022-12-04T07:08:29.606Z,79.7
2022-12-04T07:09:32.147Z,79.6
2022-12-04T07:10:34.999Z,79.9
2022-12-04T07:11:38.056Z,80
2022-12-04T07:12:40.757Z,80.3
2022-12-04T07:13:43.182Z,80.4
2022-12-04T07:14:46.617Z,80.5
2022-12-04T07:15:50.178Z,80.6
2022-12-04T07:16:53.494Z,80.7
2022-12-04T07:17:56.579Z,80.9
2022-12-04T07:18:59.276Z,80.7
2022-12-04T07:20:02.609Z,80.6
2022-12-04T07:21:05.659Z,80.6
2022-12-04T07:22:09.096Z,80.6
2022-12-04T07:23:12.591Z,80.5
2022-12-04T07:24:15.404Z,80.5
2022-12-04T07:25:18.593Z,80.5
2022-12-04T07:26:20.614Z,80.6
2022-12-04T07:27:23.186Z,80.8
2022-12-04T07:28:25.979Z,80.8
2022-12-04T07:29:29.026Z,80.9
2022-12-04T07:30:32.168Z,80.9
2022-12-04T07:31:35.381Z,80.9
2022-12-04T07:32:38.331Z,80.9
2022-12-04T07:33:41.324Z,81
2022-12-04T07:34:43.897Z,80.9
2022-12-04T07:35:46.949Z,80.8
2022-12-04T07:36:50.272Z,80.6
2022-12-04T07:37:52.688Z,80.5
2022-12-04T07:38:55.736Z,80.5
2022-12-04T07:39:59.752Z,80.5
2022-12-04T07:41:02.308Z,80.6
2022-12-04T07:42:05.359Z,80.6
2022-12-04T07:43:09.142Z,80.6
2022-12-04T07:44:12.192Z,80.6
2022-12-04T07:45:14.687Z,80.6
2022-12-04T07:46:18.364Z,80.7
2022-12-04T07:47:22.742Z,80.8
2022-12-04T07:48:34.598Z,80.8
2022-12-04T07:49:37.849Z,80.8
2022-12-04T07:50:40.548Z,80.9
2022-12-04T07:51:43.682Z,81
2022-12-04T07:52:46.188Z,81
2022-12-04T07:53:48.962Z,81.1
2022-12-04T07:54:51.446Z,81.1
2022-12-04T07:55:53.943Z,81
2022-12-04T07:56:56.695Z,81
2022-12-04T07:57:59.763Z,81
2022-12-04T07:59:02.191Z,80.9
2022-12-04T08:00:04.996Z,81
2022-12-04T08:01:08.229Z,81
2022-12-04T08:02:11.543Z,81
2022-12-04T08:03:15.389Z,81
2022-12-04T08:04:19.174Z,80.9
2022-12-04T08:05:22.088Z,80.8
2022-12-04T08:06:24.519Z,80.8
2022-12-04T08:07:28.034Z,80.7
2022-12-04T08:08:30.625Z,80.7
2022-12-04T08:09:33.321Z,80.7
2022-12-04T08:10:36.802Z,80.7
2022-12-04T08:11:39.220Z,80.8
2022-12-04T08:12:42.252Z,81.1
2022-12-04T08:13:44.742Z,81.2
2022-12-04T08:14:47.873Z,81.4
2022-12-04T08:15:51.271Z,81.4
2022-12-04T08:16:54.955Z,81.8
2022-12-04T08:17:58.193Z,82.1
2022-12-04T08:19:01.444Z,82.2
2022-12-04T08:20:04.966Z,82.4
2022-12-04T08:21:08.216Z,82.3
2022-12-04T08:22:11.315Z,82.3
2022-12-04T08:23:13.589Z,85.3
2022-12-04T08:24:16.438Z,90.7
2022-12-04T08:25:19.131Z,88.4
2022-12-04T08:26:21.627Z,86.8
2022-12-04T08:27:24.979Z,84.2
2022-12-04T08:28:27.185Z,82.6
2022-12-04T08:29:30.232Z,82
2022-12-04T08:30:33.741Z,81.8
2022-12-04T08:31:37.145Z,81.4
2022-12-04T08:32:41.059Z,81
2022-12-04T08:33:43.860Z,80.9
2022-12-04T08:34:56.874Z,80.9
2022-12-04T08:35:59.975Z,81.4
2022-12-04T08:37:02.867Z,81.5
2022-12-04T08:38:05.573Z,81.4
2022-12-04T08:39:08.623Z,81.4
2022-12-04T08:40:11.880Z,81.4
2022-12-04T08:41:14.582Z,81.5
2022-12-04T08:42:17.920Z,82
2022-12-04T08:43:20.067Z,81.8
2022-12-04T08:44:23.160Z,81.7
2022-12-04T08:45:26.198Z,81.9
2022-12-04T08:46:29.945Z,81.9
2022-12-04T08:47:33.869Z,81.3
2022-12-04T08:48:36.846Z,81.3
2022-12-04T08:49:39.546Z,81.3
2022-12-04T08:50:43.101Z,81.1
2022-12-04T08:51:46.560Z,81.2
2022-12-04T08:52:49.180Z,81.5
2022-12-04T08:53:52.600Z,81.5
2022-12-04T08:54:55.723Z,81.7
2022-12-04T08:55:58.854Z,81.5
2022-12-04T08:57:01.620Z,81.6
2022-12-04T08:58:04.506Z,81.7
2022-12-04T08:59:07.636Z,81.7
2022-12-04T09:00:10.172Z,81.7
2022-12-04T09:01:13.681Z,81.8
2022-12-04T09:02:16.006Z,81.8
2022-12-04T09:03:18.512Z,81.7
2022-12-04T09:04:22.580Z,81.5
2022-12-04T09:05:25.408Z,81.5
2022-12-04T09:06:29.466Z,81.6
2022-12-04T09:07:32.397Z,81.7
2022-12-04T09:08:35.932Z,81.8
2022-12-04T09:09:48.479Z,81.7
2022-12-04T09:10:52.044Z,81.5
2022-12-04T09:11:54.361Z,81.3
2022-12-04T09:12:56.776Z,81.1
2022-12-04T09:13:59.608Z,80.9
2022-12-04T09:15:02.586Z,80.9
2022-12-04T09:16:06.064Z,80.8
2022-12-04T09:17:09.994Z,80.8
2022-12-04T09:18:12.747Z,80.7
2022-12-04T09:19:16.457Z,80.8
2022-12-04T09:20:18.670Z,81.1
2022-12-04T09:21:21.460Z,81.1
2022-12-04T09:22:25.290Z,81
2022-12-04T09:23:28.589Z,80.9
2022-12-04T09:24:31.602Z,80.8
2022-12-04T09:25:35.045Z,80.8
2022-12-04T09:26:38.103Z,80.7
2022-12-04T09:27:41.619Z,80.6
2022-12-04T09:28:44.315Z,80.4
2022-12-04T09:29:47.193Z,80.4
2022-12-04T09:30:49.953Z,80.5
2022-12-04T09:31:53.178Z,80.5
2022-12-04T09:32:55.596Z,80.6
2022-12-04T09:33:58.014Z,80.6
2022-12-04T09:35:00.507Z,80.9
2022-12-04T09:36:03.584Z,81
2022-12-04T09:37:06.653Z,81.1
2022-12-04T09:38:09.940Z,81.2
2022-12-04T09:39:12.973Z,81.2
2022-12-04T09:40:15.398Z,81.2
2022-12-04T09:41:18.196Z,81.2
2022-12-04T09:42:21.171Z,81.2
2022-12-04T09:43:24.294Z,81.2
2022-12-04T09:44:27.394Z,81.3
2022-12-04T09:45:30.240Z,81.5
2022-12-04T09:46:33.871Z,81.4
2022-12-04T09:47:37.416Z,81.5
2022-12-04T09:48:40.424Z,81.4
2022-12-04T09:49:43.868Z,81.4
2022-12-04T09:50:46.720Z,81.2
2022-12-04T09:51:49.789Z,81.2
2022-12-04T09:52:52.906Z,81.3
2022-12-04T09:53:56.695Z,81.5
2022-12-04T09:55:00.096Z,81.7
2022-12-04T09:56:03.573Z,81.8
2022-12-04T09:57:06.554Z,81.8
2022-12-04T09:58:09.248Z,82
2022-12-04T09:59:11.964Z,82.2
2022-12-04T10:00:14.110Z,82.2
2022-12-04T10:01:16.690Z,82.3
2022-12-04T10:02:20.204Z,82.2
2022-12-04T10:03:24.632Z,82.2
2022-12-04T10:04:27.825Z,82.1
2022-12-04T10:05:30.397Z,82.1
2022-12-04T10:06:32.971Z,82.2
2022-12-04T10:07:36.612Z,82.1
2022-12-04T10:08:38.923Z,82
2022-12-04T10:09:42.429Z,81.9
2022-12-04T10:10:45.436Z,81.8
2022-12-04T10:11:48.487Z,81.7
2022-12-04T10:12:51.504Z,81.7
2022-12-04T10:13:54.273Z,81.7
2022-12-04T10:14:57.525Z,81.7
2022-12-04T10:16:00.843Z,81.8
2022-12-04T10:17:04.035Z,81.8
2022-12-04T10:18:06.800Z,81.7
2022-12-04T10:19:09.612Z,81.7
2022-12-04T10:20:12.304Z,81.7
2022-12-04T10:21:15.274Z,81.6
2022-12-04T10:22:17.510Z,81.7
2022-12-04T10:23:21.112Z,81.8
2022-12-04T10:24:23.962Z,81.8
2022-12-04T10:25:27.262Z,81.7
2022-12-04T10:26:30.666Z,81.7
2022-12-04T10:27:33.442Z,81.7
2022-12-04T10:28:36.570Z,81.7
2022-12-04T10:29:39.621Z,81.8
2022-12-04T10:30:42.777Z,81.9
2022-12-04T10:31:46.252Z,82
2022-12-04T10:32:49.002Z,82.3
2022-12-04T10:33:52.417Z,82.8
2022-12-04T10:34:55.040Z,82.8
2022-12-04T10:35:57.893Z,82.6
2022-12-04T10:37:00.871Z,82.5
2022-12-04T10:38:03.927Z,82.3
2022-12-04T10:39:06.720Z,82.2
2022-12-04T10:40:09.777Z,82.2
2022-12-04T10:41:16.692Z,82.3
2022-12-04T10:42:19.986Z,82
2022-12-04T10:43:23.112Z,81.9
2022-12-04T10:44:25.609Z,81.9
2022-12-04T10:45:28.673Z,81.9
2022-12-04T10:46:31.539Z,81.8
2022-12-04T10:47:34.999Z,81.7
2022-12-04T10:48:37.853Z,81.8
2022-12-04T10:49:40.719Z,81.8
2022-12-04T10:50:44.032Z,82
2022-12-04T10:51:47.657Z,82
2022-12-04T10:52:50.358Z,82
2022-12-04T10:53:53.483Z,82
2022-12-04T10:54:56.538Z,82
2022-12-04T10:55:59.592Z,82.1
2022-12-04T10:57:03.361Z,82.1
2022-12-04T10:58:06.720Z,82.1
2022-12-04T10:59:08.932Z,82.1
2022-12-04T11:00:12.622Z,82.3
2022-12-04T11:01:15.981Z,82.5
2022-12-04T11:02:19.087Z,82.6
2022-12-04T11:03:22.297Z,82.6
2022-12-04T11:04:24.996Z,82.6
2022-12-04T11:05:28.096Z,82.7
2022-12-04T11:06:31.493Z,82.8
2022-12-04T11:07:34.509Z,82.8
2022-12-04T11:08:37.765Z,82.8
2022-12-04T11:09:41.166Z,82.8
2022-12-04T11:10:43.869Z,82.9
2022-12-04T11:11:47.010Z,82.9
2022-12-04T11:12:50.796Z,82.9
2022-12-04T11:13:53.505Z,83
2022-12-04T11:14:55.718Z,83
2022-12-04T11:15:59.120Z,83
2022-12-04T11:17:02.593Z,83.4
2022-12-04T11:18:05.753Z,83.3
2022-12-04T11:19:09.081Z,83.4
2022-12-04T11:20:12.512Z,83.2
2022-12-04T11:21:15.489Z,83.3
2022-12-04T11:22:18.861Z,83.4
2022-12-04T11:23:21.337Z,83.5
2022-12-04T11:24:24.303Z,83.7
2022-12-04T11:25:27.004Z,83.8
2022-12-04T11:26:30.228Z,83.8
2022-12-04T11:27:33.436Z,83.7
2022-12-04T11:28:44.561Z,83.7
2022-12-04T11:29:47.952Z,83.8
2022-12-04T11:30:50.923Z,83.8
2022-12-04T11:31:54.847Z,83.8
2022-12-04T11:32:58.092Z,83.7
2022-12-04T11:34:00.858Z,83.6
2022-12-04T11:35:03.494Z,83.6
2022-12-04T11:36:07.192Z,83.6
2022-12-04T11:37:09.339Z,83.7
2022-12-04T11:38:12.507Z,83.7
2022-12-04T11:39:15.307Z,83.7
2022-12-04T11:40:19.157Z,83.7
2022-12-04T11:41:22.584Z,83.7
2022-12-04T11:42:25.286Z,83.7
2022-12-04T11:43:28.224Z,83.7
2022-12-04T11:44:31.455Z,83.7
2022-12-04T11:45:34.755Z,83.9
2022-12-04T11:46:38.596Z,84
2022-12-04T11:47:42.143Z,84
2022-12-04T11:48:45.115Z,84.2
2022-12-04T11:49:48.224Z,84.3
2022-12-04T11:50:50.728Z,84.3
2022-12-04T11:51:53.868Z,84.6
2022-12-04T11:52:56.549Z,84.7
2022-12-04T11:53:59.643Z,84.8
2022-12-04T11:55:02.969Z,84.8
2022-12-04T11:56:05.468Z,84.9
2022-12-04T11:57:08.151Z,85
2022-12-04T11:58:11.201Z,85
2022-12-04T11:59:13.975Z,85
2022-12-04T12:00:23.674Z,85.1
2022-12-04T12:01:26.499Z,85.3
2022-12-04T12:02:30.640Z,85.3
2022-12-04T12:03:34.443Z,85.5
2022-12-04T12:04:37.729Z,85.4
2022-12-04T12:05:41.443Z,85.3
2022-12-04T12:06:44.215Z,85.2
2022-12-04T12:07:47.745Z,85
2022-12-04T12:08:50.720Z,85.1
2022-12-04T12:09:54.779Z,85
2022-12-04T12:10:58.788Z,84.9
2022-12-04T12:12:02.141Z,84.8
2022-12-04T12:13:04.912Z,84.8
2022-12-04T12:14:07.790Z,84.9
2022-12-04T12:15:10.938Z,84.8
2022-12-04T12:16:14.684Z,84.6
2022-12-04T12:17:22.679Z,84.6
2022-12-04T12:18:25.834Z,84.6
2022-12-04T12:19:28.915Z,84.6
2022-12-04T12:20:31.631Z,84.7
2022-12-04T12:21:35.238Z,84.7
2022-12-04T12:22:38.008Z,84.7
2022-12-04T12:23:41.998Z,84.7
2022-12-04T12:24:52.345Z,84.8
2022-12-04T12:25:55.539Z,84.8
2022-12-04T12:26:58.690Z,84.8
2022-12-04T12:28:01.774Z,84.7
2022-12-04T12:29:04.791Z,84.7
2022-12-04T12:30:08.141Z,84.8
2022-12-04T12:31:10.574Z,84.9
2022-12-04T12:32:14.485Z,85.1
2022-12-04T12:33:17.209Z,85.1
2022-12-04T12:34:20.286Z,85.1
2022-12-04T12:35:22.425Z,85.1
2022-12-04T12:36:24.924Z,85.2
2022-12-04T12:37:28.251Z,85.5
2022-12-04T12:38:30.667Z,85.7
2022-12-04T12:39:34.411Z,85.9
2022-12-04T12:40:37.381Z,85.9
2022-12-04T12:41:40.742Z,85.9
2022-12-04T12:42:44.070Z,85.8
2022-12-04T12:43:47.301Z,85.6
2022-12-04T12:44:50.437Z,85.5
2022-12-04T12:45:53.515Z,85.4
2022-12-04T12:46:56.722Z,85.3
2022-12-04T12:48:00.479Z,85.2
2022-12-04T12:49:04.247Z,85.1
2022-12-04T12:50:06.961Z,85.3
2022-12-04T20:09:00.833Z,85.2
2022-12-04T20:10:04.636Z,85.2
2022-12-04T20:11:07.698Z,85.2
2022-12-04T20:12:10.291Z,85.3
2022-12-04T20:13:14.267Z,85.2
2022-12-04T20:14:17.321Z,85.2
2022-12-04T20:15:19.816Z,85.2
2022-12-04T20:16:23.123Z,85.3
2022-12-04T20:17:26.388Z,85.7
2022-12-04T20:18:29.792Z,86
2022-12-04T20:19:32.841Z,86.4
2022-12-04T20:20:36.466Z,86.6
2022-12-04T20:21:39.253Z,86.7
2022-12-04T20:22:41.965Z,86.6
2022-12-04T20:23:44.787Z,86.5
2022-12-04T20:24:48.520Z,86.5
2022-12-04T20:25:52.285Z,86.5
2022-12-04T20:26:55.342Z,86.4
2022-12-04T20:27:57.923Z,86.4
2022-12-04T20:29:00.414Z,86.4
2022-12-04T20:30:03.833Z,86.4
2022-12-04T20:31:07.163Z,86.3
2022-12-04T20:32:10.431Z,86.2
2022-12-04T20:33:13.565Z,86.3
2022-12-04T20:34:16.825Z,86.3
2022-12-04T20:35:19.394Z,86.2
2022-12-04T20:36:22.581Z,86.2
2022-12-04T20:37:25.999Z,86.1
2022-12-04T20:38:28.493Z,86.1
2022-12-04T20:39:31.587Z,86.1
2022-12-04T20:40:34.961Z,86.1
2022-12-04T20:41:39.046Z,86
2022-12-04T20:42:42.318Z,86
2022-12-04T20:43:45.024Z,86.1
2022-12-04T20:44:48.185Z,86.2
2022-12-04T20:45:51.892Z,86.3
2022-12-04T20:46:55.327Z,86.6
2022-12-04T20:47:58.311Z,86.7
2022-12-04T20:49:00.523Z,86.8
2022-12-04T20:50:03.517Z,86.8
2022-12-04T20:51:06.295Z,86.7
2022-12-04T20:52:09.422Z,86.6
2022-12-04T20:53:12.130Z,86.5
2022-12-04T20:54:15.180Z,86.5
2022-12-04T20:55:17.876Z,86.5
2022-12-04T20:56:20.669Z,86.6
2022-12-04T20:57:24.264Z,86.7
2022-12-04T20:58:27.325Z,86.8
2022-12-04T20:59:30.034Z,86.8
2022-12-04T21:00:32.613Z,86.8
2022-12-04T21:01:35.177Z,86.7
2022-12-04T21:02:38.882Z,86.6
2022-12-04T21:03:42.127Z,86.6
2022-12-04T21:04:44.827Z,86.5
2022-12-04T21:05:47.891Z,86.6
2022-12-04T21:06:50.755Z,86.6
2022-12-04T21:07:53.761Z,86.5
2022-12-04T21:08:56.828Z,86.4
2022-12-04T21:10:00.736Z,86.4
2022-12-04T21:11:03.790Z,86.3
2022-12-04T21:12:06.588Z,86.3
2022-12-04T21:13:10.633Z,86.4
2022-12-04T21:14:13.215Z,86.5
2022-12-04T21:15:16.543Z,86.7
2022-12-04T21:16:19.912Z,86.8
2022-12-04T21:17:23.464Z,86.8
2022-12-04T21:18:26.634Z,86.8
2022-12-04T21:19:29.795Z,86.6
2022-12-04T21:20:32.583Z,86.6
2022-12-04T21:21:35.448Z,86.7
2022-12-04T21:22:38.876Z,86.7
2022-12-04T21:23:42.016Z,86.8
2022-12-04T21:24:44.803Z,86.8
2022-12-04T21:25:47.028Z,86.7